• Join FlightAware (Why Join?)
  • Login
  • US Flag 
07:18PM EDT


 

Airport Tracker/Info


-or-


 

Live Flight TrackerFlight Track Log ✈ VOZ1166 ✈ 20-May-2013 ✈ YCFS - YSSY / SYD

Flight Track Log - Related Links

Times and Time Zones

All times are in EDT time to prevent confusion due to time zone crossing. See the VOZ1166 flight status page for this flight to view local times or setup timezone preferences in your user account.

Time Position Orientation Groundspeed Altitude Reporting Facility
EDT Latitude Longitude Course Direction KTS MPH feet Rate Location/Type
02:22AM -30.4134 153.0118 224° Southwest  Level FlightAware Approximate
02:22AM -30.3122 153.1172 222° Southwest 20,700  Level Aus ATC (Calculated)
02:23AM -30.3733 153.0495 222° Southwest 20,700 -8,700 Level Aus ATC (Calculated)
02:23AM -30.4848 152.9349 224° Southwest 261 300 10,600 -5,880 Descending Aus ATC (RADAR)
02:24AM -30.5271 152.8850 225° Southwest 289 333 12,500 2,880 Climbing Aus ATC (RADAR)
02:24AM -30.5631 152.8449 224° Southwest 303 349 14,500 3,300 Climbing Aus ATC (RADAR)
02:25AM -30.6098 152.7931 224° Southwest 309 356 16,900 3,060 Climbing Aus ATC (RADAR)
02:26AM -30.6369 152.7633 223° Southwest 317 365 18,100 2,760 Climbing Aus ATC (RADAR)
02:26AM -30.6738 152.7201 225° Southwest 322 371 19,700 2,880 Climbing Aus ATC (RADAR)
02:27AM -30.7436 152.6379 225° Southwest 329 379 22,900 3,180 Climbing Aus ATC (RADAR)
02:28AM -30.7698 152.6080 224° Southwest 319 367 24,500 3,360 Climbing Aus ATC (RADAR)
02:28AM -30.8048 152.5674 225° Southwest 305 351 26,300 3,000 Climbing Aus ATC (RADAR)
02:29AM -30.8488 152.5174 224° Southwest 294 338 28,500 2,640 Climbing Aus ATC (RADAR)
02:30AM -30.8813 152.4801 224° Southwest 284 327 29,800 1,800 Climbing Aus ATC (RADAR)
02:30AM -30.9241 152.4316 224° Southwest 288 331 30,900 1,080 Climbing Aus ATC (RADAR)
02:31AM -30.9476 152.4033 226° Southwest 291 335 31,100 -420 Climbing Aus ATC (RADAR)
02:31AM -30.9825 152.3642 224° Southwest 301 346 30,500 -1,020 Descending Aus ATC (RADAR)
02:32AM -31.0373 152.3016 224° Southwest 302 348 29,600 -1,020 Descending Aus ATC (RADAR)
02:33AM -31.0624 152.2730 224° Southwest 304 350 29,200 -1,020 Descending Aus ATC (RADAR)
02:33AM -31.0970 152.2332 225° Southwest 303 349 28,600 -1,080 Descending Aus ATC (RADAR)
02:34AM -31.1417 152.1808 225° Southwest 305 351 27,800 -1,020 Descending Aus ATC (RADAR)
02:35AM -31.1780 152.1397 224° Southwest 313 360 27,300 -1,020 Descending Aus ATC (RADAR)
02:35AM -31.2260 152.0850 224° Southwest 324 373 26,500 -1,080 Descending Aus ATC (RADAR)
02:36AM -31.2527 152.0540 225° Southwest 326 375 26,100 -1,020 Descending Aus ATC (RADAR)
02:36AM -31.2900 152.0107 225° Southwest 326 375 25,500 -1,020 Descending Aus ATC (RADAR)
02:37AM -31.3130 151.9840 225° Southwest 325 374 25,100 -1,080 Descending FlightAware
02:37AM -31.3580 151.9330 224° Southwest 326 375 24,400 -1,020 Descending FlightAware
02:38AM -31.3764 151.9100 224° Southwest 330 380 24,200 -600 Descending Aus ATC (RADAR)
02:38AM -31.4020 151.8820 224° Southwest 338 389 24,000 -240 Descending FlightAware
02:39AM -31.4520 151.8340 219° Southwest 346 398 24,000 60 Level FlightAware
02:39AM -31.4749 151.8142 219° Southwest 353 406 24,100  Climbing Aus ATC (RADAR)
02:40AM -31.5090 151.7840 219° Southwest 347 399 24,000 -120 Descending FlightAware
02:40AM -31.5630 151.7400 215° Southwest 353 406 24,000 60 Level FlightAware
02:41AM -31.6171 151.7126 215° Southwest 352 405 24,100  Climbing Aus ATC (RADAR)
02:41AM -31.6500 151.6970 215° Southwest 347 399 24,000 -120 Descending FlightAware
02:42AM -31.7150 151.6650 203° Southwest 348 400 24,000 60 Level FlightAware
02:42AM -31.7691 151.6392 203° Southwest 353 406 24,100  Climbing Aus ATC (RADAR)
02:43AM -31.7760 151.6360 203° Southwest 349 402 24,000  Descending FlightAware
02:43AM -31.8030 151.6235 203° Southwest 357 411 24,100  Climbing Aus ATC (RADAR)
02:43AM -31.8450 151.6020 203° Southwest 348 400 24,000 -120 Descending FlightAware
02:44AM -31.8970 151.5770 202° Southwest 367 422 24,000  Level FlightAware
02:45AM -31.9730 151.5410 202° Southwest 375 432 24,000  Level FlightAware
02:45AM -32.0400 151.5080 203° Southwest 377 434 24,000 60 Level FlightAware
02:46AM -32.1034 151.4776 203° Southwest 375 432 24,100  Climbing Aus ATC (RADAR)
02:46AM -32.1040 151.4770 203° Southwest 374 430 24,000  Descending FlightAware
02:47AM -32.1596 151.4504 203° Southwest 374 430 24,100  Climbing Aus ATC (RADAR)
02:47AM -32.1710 151.4440 203° Southwest 375 432 24,000 -120 Descending FlightAware
02:47AM -32.2390 151.4110 202° Southwest 375 432 24,000 60 Level FlightAware
02:48AM -32.2880 151.3877 202° Southwest 375 432 24,100  Climbing Aus ATC (RADAR)
02:48AM -32.3030 151.3800 202° Southwest 377 434 24,000  Descending FlightAware
02:48AM -32.3445 151.3599 202° Southwest 377 434 24,100  Climbing Aus ATC (RADAR)
02:49AM -32.3730 151.3460 202° Southwest 376 433 24,000  Descending FlightAware
02:49AM -32.4166 151.3248 202° Southwest 373 429 24,100  Climbing Aus ATC (RADAR)
02:50AM -32.4410 151.3120 202° Southwest 376 433 24,000 -120 Descending FlightAware
02:50AM -32.5090 151.2790 202° Southwest 377 434 24,000 60 Level FlightAware
02:51AM -32.5545 151.2606 202° Southwest 378 435 24,100  Climbing Aus ATC (RADAR)
02:51AM -32.5790 151.2570 202° Southwest 387 445 24,000 -1,020 Descending FlightAware
02:52AM -32.6628 151.2524 202° Southwest 384 442 23,100 -1,200 Descending Aus ATC (RADAR)
02:52AM -32.6590 151.2520 202° Southwest 390 449 23,100 -1,980 Level FlightAware
02:52AM -32.7350 151.2480 183° South 388 447 21,600 -2,280 Descending FlightAware
02:53AM -32.7970 151.2450 183° South 378 435 20,500 -2,160 Descending Aus ATC (RADAR)
02:53AM -32.8160 151.2440 183° South 376 433 20,000 -2,100 Descending FlightAware
02:53AM -32.8573 151.2416 183° South 366 421 19,300 -1,800 Descending Aus ATC (RADAR)
02:54AM -32.8800 151.2400 183° South 365 420 18,800 -1,920 Descending FlightAware
02:54AM -32.9326 151.2376 183° South 355 409 17,900 -2,100 Descending Aus ATC (RADAR)
02:54AM -32.9430 151.2370 183° South 360 414 17,600 -1,920 Descending FlightAware
02:55AM -32.9875 151.2341 183° South 359 413 16,800 -1,920 Descending Aus ATC (RADAR)
02:55AM -33.0150 151.2330 183° South 355 409 16,200 -1,920 Descending FlightAware
02:56AM -33.0642 151.2299 183° South 347 399 15,400 -1,980 Descending Aus ATC (RADAR)
02:56AM -33.0830 151.2290 183° South 348 400 14,900 -1,860 Descending FlightAware
02:56AM -33.1490 151.2260 182° South 343 395 13,700 -1,800 Descending FlightAware
02:57AM -33.2150 151.2220 183° South 337 388 12,400 -1,860 Descending FlightAware
02:58AM -33.2603 151.2192 183° South 327 376 11,600 -1,740 Descending Aus ATC (RADAR)
02:58AM -33.2830 151.2190 183° South 325 374 11,100 -1,800 Descending FlightAware
02:59AM -33.3497 151.2143 183° South 315 362 9,800 -1,980 Descending Aus ATC (RADAR)
02:59AM -33.3480 151.2150 183° South 321 369 9,800 -1,320 Level FlightAware
02:59AM -33.3860 151.2130 183° South 321 369 9,100 -1,500 Descending FlightAware
03:00AM -33.4300 151.2100 183° South 302 348 8,300 -1,680 Descending FlightAware
03:00AM -33.4470 151.2090 183° South 298 343 8,000 -1,680 Descending FlightAware
03:00AM -33.4860 151.2070 182° South 291 335 7,200 -1,620 Descending FlightAware
03:01AM -33.5050 151.2060 183° South 289 333 6,800 -2,100 Descending FlightAware
03:01AM -33.5440 151.2040 182° South 287 330 5,800 -2,280 Descending FlightAware
03:01AM -33.5580 151.2030 183° South 289 333 5,300 -1,200 Descending FlightAware
03:02AM -33.5980 151.2010 182° South 265 305 4,900 -960 Descending FlightAware
03:02AM -33.6190 151.2000 182° South 260 299 4,600 -1,380 Descending FlightAware
03:02AM -33.6470 151.1980 183° South 260 299 4,000 -900 Descending FlightAware
03:03AM -33.6733 151.1962 183° South 256 295 4,000  Level Aus ATC (RADAR)
03:03AM -33.6840 151.1960 183° South 241 277 4,000  Level FlightAware
03:03AM -33.7030 151.1950 183° South 239 275 4,000 -300 Level FlightAware
03:04AM -33.7344 151.1875 183° South 230 265 3,800 -900 Descending Aus ATC (RADAR)
03:04AM -33.7430 151.1850 183° South 217 250 3,500 -1,020 Descending FlightAware
03:04AM -33.7720 151.1760 194° South 213 245 3,100 -660 Descending FlightAware
03:05AM -33.7950 151.1690 194° South 185 213 2,900 -780 Descending FlightAware
03:05AM -33.8210 151.1620 193° South 183 211 2,400 -840 Descending FlightAware
03:06AM -33.8466 151.1622 193° South 175 201 2,100 -540 Descending Aus ATC (RADAR)
03:06AM -33.8410 151.1610 193° South 176 203 2,100 -720 Level FlightAware
03:06AM -33.8653 151.1662 193° South 161 185 1,800 -840 Descending Aus ATC (RADAR)
03:06AM -33.8640 151.1660 193° South 160 184 1,700 -900 Descending FlightAware
03:07AM -33.8885 151.1726 193° South 141 162 1,300 -1,020 Descending Aus ATC (RADAR)
03:07AM -33.8910 151.1730 193° South 136 157 1,200 -840 Descending FlightAware
03:07AM -33.9090 151.1780 167° South 120 138 800 -660 Descending FlightAware
03:08AM -33.9240 151.1820 168° South 121 139 600 -600 Descending FlightAware
03:08AM -33.9330 151.1840 170° South 130 150 400 -780 Descending FlightAware
03:08AM -33.9444 151.1872 170° South 126 145 200 -720 Descending Aus ATC (RADAR)
03:08AM -33.9500 151.1880 170° South 132 152 -960 Descending FlightAware
03:09AM -33.9630 151.1920 166° South 71 82  Level FlightAware
03:09AM -33.9670 151.1910 192° South 14 16  Level FlightAware
03:10AM -33.9660 151.1910 360° North 17 20  Level FlightAware
03:10AM -33.9640 151.1900 337° Northwest 22 25  Level FlightAware
03:11AM -33.9550 151.1880 350° North 29 33  Level FlightAware